Time,TemperatureF,DewpointF,PressureIn,WindDirection,WindDirectionDegrees,WindSpeedMPH,WindSpeedGustMPH,Humidity,HourlyPrecipIn,Conditions,Clouds,dailyrainin,SolarRadiationWatts/m^2,SoftwareType,DateUTC
2013-07-19 00:01:00,65.0,60.0,-100.00,NW,324,0.0,0.0,85,-99.99,,,0.10,0.000000,,2013-07-19 07:01:00,
2013-07-19 00:33:00,66.0,56.0,-100.00,NNW,331,0.0,0.0,69,0.00,,,-99.99,0.000000,,2013-07-19 07:33:00,
2013-07-19 00:43:00,66.0,56.0,-100.00,NNW,331,0.0,0.0,69,0.00,,,-99.99,0.000000,,2013-07-19 07:43:00,
2013-07-19 00:53:00,66.0,56.0,-100.00,NNW,331,0.0,0.0,69,0.00,,,-99.99,0.000000,,2013-07-19 07:53:00,
2013-07-19 01:01:00,66.0,56.0,-100.00,NNW,331,0.0,0.0,69,0.00,,,-99.99,0.000000,,2013-07-19 08:01:00,
2013-07-19 01:43:00,65.0,57.0,-100.00,NNW,340,0.0,0.0,76,0.00,,,-99.99,0.000000,,2013-07-19 08:43:00,
2013-07-19 01:52:00,65.0,57.0,-100.00,NNW,340,0.0,0.0,76,0.00,,,-99.99,0.000000,,2013-07-19 08:52:00,
2013-07-19 02:02:00,65.0,57.0,-100.00,NNW,340,0.0,0.0,76,0.00,,,-99.99,0.000000,,2013-07-19 09:02:00,
2013-07-19 02:32:00,65.0,54.0,-100.00,North,358,0.0,0.0,67,0.00,,,-99.99,0.000000,,2013-07-19 09:32:00,
2013-07-19 02:43:00,65.0,54.0,-100.00,North,358,0.0,0.0,67,0.00,,,-99.99,0.000000,,2013-07-19 09:43:00,
2013-07-19 02:52:00,65.0,54.0,-100.00,North,358,0.0,0.0,67,0.00,,,-99.99,0.000000,,2013-07-19 09:52:00,
2013-07-19 03:01:00,65.0,54.0,-100.00,North,358,0.0,0.0,67,0.00,,,-99.99,0.000000,,2013-07-19 10:01:00,
2013-07-19 03:33:00,67.0,55.0,-100.00,North,357,0.0,0.0,66,0.00,,,0.10,0.000000,,2013-07-19 10:33:00,
2013-07-19 03:43:00,67.0,55.0,-100.00,North,357,0.0,0.0,66,0.00,,,0.10,0.000000,,2013-07-19 10:43:00,
2013-07-19 03:52:00,67.0,55.0,-100.00,North,357,0.0,0.0,66,0.00,,,0.10,0.000000,,2013-07-19 10:52:00,
2013-07-19 04:02:00,67.0,55.0,-100.00,North,357,0.0,0.0,66,0.00,,,0.10,0.000000,,2013-07-19 11:02:00,
2013-07-19 04:22:00,67.0,55.0,-100.00,NNW,339,0.0,0.0,66,0.00,,,0.10,0.000000,,2013-07-19 11:22:00,
2013-07-19 04:33:00,67.0,55.0,-100.00,NNW,339,0.0,0.0,66,0.00,,,0.10,0.000000,,2013-07-19 11:33:00,
2013-07-19 04:43:00,67.0,55.0,-100.00,NNW,339,0.0,0.0,66,0.00,,,0.10,0.000000,,2013-07-19 11:43:00,
2013-07-19 04:52:00,67.0,55.0,-100.00,NNW,339,0.0,0.0,66,0.00,,,0.10,0.000000,,2013-07-19 11:52:00,
2013-07-19 05:01:00,67.0,55.0,-100.00,NNW,339,0.0,0.0,66,0.00,,,0.10,0.000000,,2013-07-19 12:01:00,
2013-07-19 05:33:00,66.0,54.0,-100.00,North,358,0.0,0.0,66,0.00,,,0.10,0.000000,,2013-07-19 12:33:00,
2013-07-19 05:44:00,66.0,54.0,-100.00,North,358,0.0,0.0,66,0.00,,,0.10,0.000000,,2013-07-19 12:44:00,
2013-07-19 05:52:00,66.0,54.0,-100.00,North,358,0.0,0.0,66,0.00,,,0.10,0.000000,,2013-07-19 12:52:00,
2013-07-19 06:02:00,66.0,54.0,-100.00,North,358,0.0,0.0,66,0.00,,,0.10,0.000000,,2013-07-19 13:02:00,
2013-07-19 06:32:00,65.0,54.0,-100.00,North,355,0.0,0.0,67,0.00,,,0.10,3.000000,,2013-07-19 13:32:00,
2013-07-19 06:43:00,65.0,54.0,-100.00,North,355,0.0,0.0,67,0.00,,,0.10,3.000000,,2013-07-19 13:43:00,
2013-07-19 06:53:00,65.0,54.0,-100.00,North,355,0.0,0.0,67,0.00,,,0.10,3.000000,,2013-07-19 13:53:00,
2013-07-19 07:01:00,65.0,54.0,-100.00,North,355,0.0,0.0,67,0.00,,,0.10,3.000000,,2013-07-19 14:01:00,
2013-07-19 07:33:00,65.0,52.0,-100.00,NNW,343,0.0,0.0,63,0.00,,,-99.99,22.000000,,2013-07-19 14:33:00,
2013-07-19 07:43:00,65.0,52.0,-100.00,NNW,343,0.0,0.0,63,0.00,,,-99.99,22.000000,,2013-07-19 14:43:00,
2013-07-19 07:53:00,65.0,52.0,-100.00,NNW,343,0.0,0.0,63,0.00,,,-99.99,22.000000,,2013-07-19 14:53:00,
2013-07-19 08:02:00,65.0,52.0,-100.00,NNW,343,0.0,0.0,63,0.00,,,-99.99,22.000000,,2013-07-19 15:02:00,
2013-07-19 08:32:00,74.0,56.0,-100.00,North,353,0.0,0.0,54,0.00,,,0.10,183.000000,,2013-07-19 15:32:00,
2013-07-19 08:43:00,74.0,56.0,-100.00,North,353,0.0,0.0,54,0.00,,,0.10,183.000000,,2013-07-19 15:43:00,
2013-07-19 08:52:00,74.0,56.0,-100.00,North,353,0.0,0.0,54,0.00,,,0.10,183.000000,,2013-07-19 15:52:00,
2013-07-19 09:01:00,74.0,56.0,-100.00,North,353,0.0,0.0,54,0.00,,,0.10,183.000000,,2013-07-19 16:01:00,
2013-07-19 09:32:00,79.0,57.0,-100.00,SE,134,0.0,0.0,47,0.00,,,0.10,544.000000,,2013-07-19 16:32:00,
2013-07-19 09:43:00,79.0,57.0,-100.00,SE,134,0.0,0.0,47,0.00,,,0.10,544.000000,,2013-07-19 16:43:00,
2013-07-19 09:52:00,79.0,57.0,-100.00,SE,134,0.0,0.0,47,0.00,,,0.10,544.000000,,2013-07-19 16:52:00,
2013-07-19 10:02:00,79.0,57.0,-100.00,SE,134,0.0,0.0,47,0.00,,,0.10,544.000000,,2013-07-19 17:02:00,
2013-07-19 10:32:00,85.0,59.0,-100.00,East,92,0.0,0.0,42,0.00,,,0.10,764.000000,,2013-07-19 17:32:00,
2013-07-19 10:43:00,85.0,59.0,-100.00,East,92,0.0,0.0,42,0.00,,,0.10,764.000000,,2013-07-19 17:43:00,
2013-07-19 10:52:00,85.0,59.0,-100.00,East,92,0.0,0.0,42,0.00,,,0.10,764.000000,,2013-07-19 17:52:00,
2013-07-19 11:01:00,85.0,59.0,-100.00,East,92,0.0,0.0,42,0.00,,,0.10,764.000000,,2013-07-19 18:01:00,
2013-07-19 11:32:00,82.0,59.0,-100.00,SE,137,0.0,0.0,45,0.00,,,0.10,394.000000,,2013-07-19 18:32:00,
2013-07-19 11:42:00,82.0,59.0,-100.00,SE,137,0.0,0.0,45,0.00,,,0.10,394.000000,,2013-07-19 18:42:00,
2013-07-19 11:52:00,82.0,59.0,-100.00,SE,137,0.0,0.0,45,0.00,,,0.10,394.000000,,2013-07-19 18:52:00,
2013-07-19 12:01:00,82.0,59.0,-100.00,SE,137,0.0,0.0,45,0.00,,,0.10,394.000000,,2013-07-19 19:01:00,
2013-07-19 12:32:00,85.0,59.0,-100.00,East,89,0.0,0.0,41,0.00,,,0.10,302.000000,,2013-07-19 19:32:00,
2013-07-19 12:43:00,85.0,59.0,-100.00,East,89,0.0,0.0,41,0.00,,,0.10,302.000000,,2013-07-19 19:43:00,
2013-07-19 12:52:00,85.0,59.0,-100.00,East,89,0.0,0.0,41,0.00,,,0.10,302.000000,,2013-07-19 19:52:00,
2013-07-19 13:01:00,85.0,59.0,-100.00,East,89,0.0,0.0,41,0.00,,,0.10,302.000000,,2013-07-19 20:01:00,
2013-07-19 13:33:00,84.0,58.0,-100.00,SSE,151,0.0,0.0,41,0.00,,,0.10,319.000000,,2013-07-19 20:33:00,
2013-07-19 13:43:00,84.0,58.0,-100.00,SSE,151,0.0,0.0,41,0.00,,,0.10,319.000000,,2013-07-19 20:43:00,
2013-07-19 13:52:00,84.0,58.0,-100.00,SSE,151,0.0,0.0,41,0.00,,,0.10,319.000000,,2013-07-19 20:52:00,
2013-07-19 14:01:00,84.0,58.0,-100.00,SSE,151,0.0,0.0,41,0.00,,,0.10,319.000000,,2013-07-19 21:01:00,
2013-07-19 14:32:00,89.0,57.0,-100.00,SE,130,0.0,0.0,34,0.00,,,0.10,581.000000,,2013-07-19 21:32:00,
2013-07-19 14:43:00,89.0,57.0,-100.00,SE,130,0.0,0.0,34,0.00,,,0.10,581.000000,,2013-07-19 21:43:00,
2013-07-19 14:52:00,89.0,57.0,-100.00,SE,130,0.0,0.0,34,0.00,,,0.10,581.000000,,2013-07-19 21:52:00,
2013-07-19 15:01:00,89.0,57.0,-100.00,SE,130,0.0,0.0,34,0.00,,,0.10,581.000000,,2013-07-19 22:01:00,
2013-07-19 15:32:00,92.0,55.0,-100.00,SE,128,0.0,0.0,29,0.00,,,0.10,827.000000,,2013-07-19 22:32:00,
2013-07-19 15:43:00,92.0,55.0,-100.00,SE,128,0.0,0.0,29,0.00,,,0.10,827.000000,,2013-07-19 22:43:00,
2013-07-19 15:52:00,92.0,55.0,-100.00,SE,128,0.0,0.0,29,0.00,,,0.10,827.000000,,2013-07-19 22:52:00,
2013-07-19 16:01:00,92.0,55.0,-100.00,SE,128,0.0,0.0,29,0.00,,,0.10,827.000000,,2013-07-19 23:01:00,
2013-07-19 17:43:00,67.0,62.0,-100.00,SSE,167,0.0,0.0,83,-99.99,,,0.20,48.000000,,2013-07-20 00:43:00,
2013-07-19 17:52:00,67.0,62.0,-100.00,SSE,167,0.0,0.0,83,-99.99,,,0.20,48.000000,,2013-07-20 00:52:00,
2013-07-19 18:01:00,67.0,62.0,-100.00,SSE,167,0.0,0.0,83,-99.99,,,0.20,48.000000,,2013-07-20 01:01:00,
2013-07-19 18:32:00,69.0,63.0,-100.00,SW,214,0.0,0.0,82,0.00,,,0.10,100.000000,,2013-07-20 01:32:00,
2013-07-19 18:52:00,69.0,63.0,-100.00,SW,214,0.0,0.0,82,0.00,,,0.10,100.000000,,2013-07-20 01:52:00,
2013-07-19 19:01:00,69.0,63.0,-100.00,SW,214,0.0,0.0,82,0.00,,,0.10,100.000000,,2013-07-20 02:01:00,
2013-07-19 19:33:00,72.0,60.0,-100.00,South,186,0.0,0.0,67,0.00,,,0.10,21.000000,,2013-07-20 02:33:00,
2013-07-19 19:44:00,72.0,60.0,-100.00,South,186,0.0,0.0,67,0.00,,,0.10,21.000000,,2013-07-20 02:44:00,
2013-07-19 19:52:00,72.0,60.0,-100.00,South,186,0.0,0.0,67,0.00,,,0.10,21.000000,,2013-07-20 02:52:00,
2013-07-19 20:02:00,72.0,60.0,-100.00,South,186,0.0,0.0,67,0.00,,,0.10,21.000000,,2013-07-20 03:02:00,
2013-07-19 20:32:00,67.0,67.0,-100.00,South,177,0.0,0.0,100,0.00,,,0.10,0.000000,,2013-07-20 03:32:00,
2013-07-19 20:44:00,67.0,67.0,-100.00,South,177,0.0,0.0,100,0.00,,,0.10,0.000000,,2013-07-20 03:44:00,
2013-07-19 20:53:00,67.0,67.0,-100.00,South,177,0.0,0.0,100,0.00,,,0.10,0.000000,,2013-07-20 03:53:00,
2013-07-19 21:01:00,67.0,67.0,-100.00,South,177,0.0,0.0,100,0.00,,,0.10,0.000000,,2013-07-20 04:01:00,
2013-07-19 21:33:00,67.0,67.0,-100.00,North,357,0.0,0.0,100,0.00,,,0.10,0.000000,,2013-07-20 04:33:00,
2013-07-19 21:44:00,67.0,67.0,-100.00,North,357,0.0,0.0,100,0.00,,,0.10,0.000000,,2013-07-20 04:44:00,
2013-07-19 21:52:00,67.0,67.0,-100.00,North,357,0.0,0.0,100,0.00,,,0.10,0.000000,,2013-07-20 04:52:00,
2013-07-19 22:02:00,67.0,67.0,-100.00,North,357,0.0,0.0,100,0.00,,,0.10,0.000000,,2013-07-20 05:02:00,
2013-07-19 22:32:00,64.0,64.0,-100.00,NNW,347,0.0,0.0,100,0.10,,,0.20,0.000000,,2013-07-20 05:32:00,
2013-07-19 22:52:00,64.0,64.0,-100.00,NNW,347,0.0,0.0,100,0.10,,,0.20,0.000000,,2013-07-20 05:52:00,
2013-07-19 23:01:00,64.0,64.0,-100.00,NNW,347,0.0,0.0,100,0.10,,,0.20,0.000000,,2013-07-20 06:01:00,
2013-07-19 23:32:00,64.0,64.0,-100.00,NNW,339,0.0,0.0,100,0.00,,,0.20,0.000000,,2013-07-20 06:32:00,
2013-07-19 23:43:00,64.0,64.0,-100.00,NNW,339,0.0,0.0,100,0.00,,,0.20,0.000000,,2013-07-20 06:43:00,
2013-07-19 23:52:00,64.0,64.0,-100.00,NNW,339,0.0,0.0,100,0.00,,,0.20,0.000000,,2013-07-20 06:52:00,